sensor_id;sensor_type;location;lat;lon;timestamp;P1;durP1;ratioP1;P2;durP2;ratioP2
12848;SDS011;6493;50.928;7.172;2023-06-22T00:01:45;2.30;;;1.90;;
12848;SDS011;6493;50.928;7.172;2023-06-22T00:06:50;2.10;;;2.00;;
12848;SDS011;6493;50.928;7.172;2023-06-22T00:11:53;2.00;;;1.90;;
12848;SDS011;6493;50.928;7.172;2023-06-22T00:16:57;2.20;;;1.63;;
12848;SDS011;6493;50.928;7.172;2023-06-22T00:22:02;1.80;;;1.70;;
12848;SDS011;6493;50.928;7.172;2023-06-22T00:27:06;1.87;;;1.77;;
12848;SDS011;6493;50.928;7.172;2023-06-22T00:32:09;1.70;;;1.60;;
12848;SDS011;6493;50.928;7.172;2023-06-22T00:37:14;1.70;;;1.60;;
12848;SDS011;6493;50.928;7.172;2023-06-22T00:42:18;1.50;;;1.40;;
12848;SDS011;6493;50.928;7.172;2023-06-22T00:47:22;1.73;;;1.20;;
12848;SDS011;6493;50.928;7.172;2023-06-22T00:52:27;1.60;;;1.50;;
12848;SDS011;6493;50.928;7.172;2023-06-22T00:57:32;1.70;;;1.60;;
12848;SDS011;6493;50.928;7.172;2023-06-22T01:02:39;1.50;;;1.40;;
12848;SDS011;6493;50.928;7.172;2023-06-22T01:07:46;1.80;;;1.70;;
12848;SDS011;6493;50.928;7.172;2023-06-22T01:13:00;1.27;;;1.20;;
12848;SDS011;6493;50.928;7.172;2023-06-22T01:18:10;1.60;;;1.50;;
12848;SDS011;6493;50.928;7.172;2023-06-22T01:23:20;1.73;;;1.50;;
12848;SDS011;6493;50.928;7.172;2023-06-22T01:28:39;1.63;;;1.53;;
12848;SDS011;6493;50.928;7.172;2023-06-22T01:33:48;1.70;;;1.60;;
12848;SDS011;6493;50.928;7.172;2023-06-22T01:38:55;1.70;;;1.60;;
12848;SDS011;6493;50.928;7.172;2023-06-22T01:44:02;2.00;;;1.80;;
12848;SDS011;6493;50.928;7.172;2023-06-22T01:49:08;2.00;;;1.63;;
12848;SDS011;6493;50.928;7.172;2023-06-22T01:54:12;1.80;;;1.70;;
12848;SDS011;6493;50.928;7.172;2023-06-22T01:59:18;1.80;;;1.70;;
12848;SDS011;6493;50.928;7.172;2023-06-22T02:04:30;2.17;;;1.97;;
12848;SDS011;6493;50.928;7.172;2023-06-22T02:09:39;2.10;;;2.00;;
12848;SDS011;6493;50.928;7.172;2023-06-22T02:14:48;2.20;;;2.00;;
12848;SDS011;6493;50.928;7.172;2023-06-22T02:19:53;2.00;;;1.90;;
12848;SDS011;6493;50.928;7.172;2023-06-22T02:24:57;1.43;;;1.33;;
12848;SDS011;6493;50.928;7.172;2023-06-22T02:30:02;1.87;;;1.77;;
12848;SDS011;6493;50.928;7.172;2023-06-22T02:35:06;2.50;;;2.30;;
12848;SDS011;6493;50.928;7.172;2023-06-22T02:40:10;1.80;;;1.70;;
12848;SDS011;6493;50.928;7.172;2023-06-22T02:45:16;1.67;;;1.57;;
12848;SDS011;6493;50.928;7.172;2023-06-22T02:50:20;1.73;;;1.47;;
12848;SDS011;6493;50.928;7.172;2023-06-22T02:55:24;1.60;;;1.50;;
12848;SDS011;6493;50.928;7.172;2023-06-22T03:00:32;2.17;;;1.63;;
12848;SDS011;6493;50.928;7.172;2023-06-22T03:05:36;3.67;;;2.00;;
12848;SDS011;6493;50.928;7.172;2023-06-22T03:10:42;2.10;;;2.00;;
12848;SDS011;6493;50.928;7.172;2023-06-22T03:15:47;2.23;;;2.03;;
12848;SDS011;6493;50.928;7.172;2023-06-22T03:20:51;2.30;;;2.10;;
12848;SDS011;6493;50.928;7.172;2023-06-22T03:25:54;2.57;;;2.37;;
12848;SDS011;6493;50.928;7.172;2023-06-22T03:30:59;2.10;;;1.90;;
12848;SDS011;6493;50.928;7.172;2023-06-22T03:36:05;2.03;;;1.90;;
12848;SDS011;6493;50.928;7.172;2023-06-22T03:41:10;2.27;;;2.07;;
12848;SDS011;6493;50.928;7.172;2023-06-22T03:46:16;1.90;;;1.80;;
12848;SDS011;6493;50.928;7.172;2023-06-22T03:51:20;1.50;;;1.40;;
12848;SDS011;6493;50.928;7.172;2023-06-22T03:56:24;1.70;;;1.60;;
12848;SDS011;6493;50.928;7.172;2023-06-22T04:01:28;1.93;;;1.80;;
12848;SDS011;6493;50.928;7.172;2023-06-22T04:06:32;1.70;;;1.60;;
12848;SDS011;6493;50.928;7.172;2023-06-22T04:11:36;1.60;;;1.50;;
12848;SDS011;6493;50.928;7.172;2023-06-22T04:16:41;1.90;;;1.60;;
12848;SDS011;6493;50.928;7.172;2023-06-22T04:21:45;1.67;;;1.57;;
12848;SDS011;6493;50.928;7.172;2023-06-22T04:26:50;2.20;;;2.00;;
12848;SDS011;6493;50.928;7.172;2023-06-22T04:31:58;1.93;;;1.83;;
12848;SDS011;6493;50.928;7.172;2023-06-22T04:37:05;2.00;;;1.90;;
12848;SDS011;6493;50.928;7.172;2023-06-22T04:42:08;2.93;;;2.67;;
12848;SDS011;6493;50.928;7.172;2023-06-22T04:47:13;2.57;;;2.20;;
12848;SDS011;6493;50.928;7.172;2023-06-22T04:52:17;3.00;;;2.50;;
12848;SDS011;6493;50.928;7.172;2023-06-22T04:57:22;3.67;;;2.80;;
12848;SDS011;6493;50.928;7.172;2023-06-22T05:02:33;2.33;;;2.23;;
12848;SDS011;6493;50.928;7.172;2023-06-22T05:07:37;4.00;;;3.57;;
12848;SDS011;6493;50.928;7.172;2023-06-22T05:12:45;2.90;;;2.70;;
12848;SDS011;6493;50.928;7.172;2023-06-22T05:17:50;3.20;;;3.00;;
12848;SDS011;6493;50.928;7.172;2023-06-22T05:22:54;3.00;;;2.30;;
12848;SDS011;6493;50.928;7.172;2023-06-22T05:27:58;2.07;;;1.97;;
12848;SDS011;6493;50.928;7.172;2023-06-22T05:33:03;1.50;;;1.40;;
12848;SDS011;6493;50.928;7.172;2023-06-22T05:38:07;2.10;;;1.37;;
12848;SDS011;6493;50.928;7.172;2023-06-22T05:43:11;1.70;;;1.60;;
12848;SDS011;6493;50.928;7.172;2023-06-22T05:48:16;2.37;;;1.47;;
12848;SDS011;6493;50.928;7.172;2023-06-22T05:53:19;1.80;;;1.70;;
12848;SDS011;6493;50.928;7.172;2023-06-22T05:58:23;1.57;;;1.47;;
12848;SDS011;6493;50.928;7.172;2023-06-22T06:03:29;1.57;;;1.47;;
12848;SDS011;6493;50.928;7.172;2023-06-22T06:08:33;1.33;;;1.27;;
12848;SDS011;6493;50.928;7.172;2023-06-22T06:13:36;1.57;;;1.47;;
12848;SDS011;6493;50.928;7.172;2023-06-22T06:18:41;1.10;;;1.10;;
12848;SDS011;6493;50.928;7.172;2023-06-22T06:23:45;1.60;;;1.50;;
12848;SDS011;6493;50.928;7.172;2023-06-22T06:28:49;1.50;;;1.40;;
12848;SDS011;6493;50.928;7.172;2023-06-22T06:33:54;1.70;;;1.60;;
12848;SDS011;6493;50.928;7.172;2023-06-22T06:38:57;1.70;;;1.60;;
12848;SDS011;6493;50.928;7.172;2023-06-22T06:44:01;1.80;;;1.70;;
12848;SDS011;6493;50.928;7.172;2023-06-22T06:49:06;2.00;;;1.90;;
12848;SDS011;6493;50.928;7.172;2023-06-22T06:54:10;1.70;;;1.60;;
12848;SDS011;6493;50.928;7.172;2023-06-22T06:59:14;2.10;;;1.90;;
12848;SDS011;6493;50.928;7.172;2023-06-22T07:04:19;2.00;;;1.90;;
12848;SDS011;6493;50.928;7.172;2023-06-22T07:09:23;2.10;;;2.00;;
12848;SDS011;6493;50.928;7.172;2023-06-22T07:14:26;2.67;;;2.47;;
12848;SDS011;6493;50.928;7.172;2023-06-22T07:19:32;3.10;;;2.37;;
12848;SDS011;6493;50.928;7.172;2023-06-22T07:24:35;2.70;;;2.50;;
12848;SDS011;6493;50.928;7.172;2023-06-22T07:29:39;3.00;;;2.80;;
12848;SDS011;6493;50.928;7.172;2023-06-22T07:34:46;2.40;;;2.20;;
12848;SDS011;6493;50.928;7.172;2023-06-22T07:39:50;2.20;;;2.10;;
12848;SDS011;6493;50.928;7.172;2023-06-22T07:44:55;2.63;;;2.43;;
12848;SDS011;6493;50.928;7.172;2023-06-22T07:50:00;1.90;;;1.80;;
12848;SDS011;6493;50.928;7.172;2023-06-22T07:55:05;2.10;;;2.00;;
12848;SDS011;6493;50.928;7.172;2023-06-22T08:00:09;2.90;;;2.70;;
12848;SDS011;6493;50.928;7.172;2023-06-22T08:05:19;2.87;;;2.57;;
12848;SDS011;6493;50.928;7.172;2023-06-22T08:10:35;2.90;;;2.70;;
12848;SDS011;6493;50.928;7.172;2023-06-22T08:15:39;3.20;;;2.90;;
12848;SDS011;6493;50.928;7.172;2023-06-22T08:20:44;2.50;;;2.30;;
12848;SDS011;6493;50.928;7.172;2023-06-22T08:25:47;3.23;;;3.03;;
12848;SDS011;6493;50.928;7.172;2023-06-22T08:30:52;2.43;;;2.33;;
12848;SDS011;6493;50.928;7.172;2023-06-22T08:35:58;2.63;;;2.43;;
12848;SDS011;6493;50.928;7.172;2023-06-22T08:41:02;2.93;;;2.73;;
12848;SDS011;6493;50.928;7.172;2023-06-22T08:46:06;2.77;;;2.57;;
12848;SDS011;6493;50.928;7.172;2023-06-22T08:51:11;2.70;;;2.50;;
12848;SDS011;6493;50.928;7.172;2023-06-22T08:56:15;2.80;;;2.60;;
12848;SDS011;6493;50.928;7.172;2023-06-22T09:01:19;2.77;;;2.57;;
12848;SDS011;6493;50.928;7.172;2023-06-22T09:06:25;3.20;;;2.90;;
12848;SDS011;6493;50.928;7.172;2023-06-22T09:11:28;2.73;;;2.53;;
12848;SDS011;6493;50.928;7.172;2023-06-22T09:16:32;2.70;;;2.50;;
12848;SDS011;6493;50.928;7.172;2023-06-22T09:21:38;2.87;;;2.67;;
12848;SDS011;6493;50.928;7.172;2023-06-22T09:26:41;2.90;;;2.70;;
12848;SDS011;6493;50.928;7.172;2023-06-22T09:31:45;2.10;;;2.00;;
12848;SDS011;6493;50.928;7.172;2023-06-22T09:36:50;2.30;;;2.20;;
12848;SDS011;6493;50.928;7.172;2023-06-22T09:41:54;3.00;;;2.80;;
12848;SDS011;6493;50.928;7.172;2023-06-22T09:46:57;2.80;;;2.60;;
12848;SDS011;6493;50.928;7.172;2023-06-22T09:52:03;2.70;;;2.50;;
12848;SDS011;6493;50.928;7.172;2023-06-22T09:57:07;2.67;;;2.47;;
12848;SDS011;6493;50.928;7.172;2023-06-22T10:02:10;3.10;;;2.90;;
12848;SDS011;6493;50.928;7.172;2023-06-22T10:07:16;2.97;;;2.77;;
12848;SDS011;6493;50.928;7.172;2023-06-22T10:12:20;2.53;;;2.33;;
12848;SDS011;6493;50.928;7.172;2023-06-22T10:17:23;2.60;;;2.40;;
12848;SDS011;6493;50.928;7.172;2023-06-22T10:22:28;3.17;;;2.90;;
12848;SDS011;6493;50.928;7.172;2023-06-22T10:27:32;2.90;;;2.70;;
12848;SDS011;6493;50.928;7.172;2023-06-22T10:32:37;2.63;;;2.43;;
12848;SDS011;6493;50.928;7.172;2023-06-22T10:37:43;2.57;;;2.40;;
12848;SDS011;6493;50.928;7.172;2023-06-22T10:42:47;2.10;;;2.00;;
12848;SDS011;6493;50.928;7.172;2023-06-22T10:47:52;2.03;;;1.70;;
12848;SDS011;6493;50.928;7.172;2023-06-22T10:52:57;1.73;;;1.63;;
12848;SDS011;6493;50.928;7.172;2023-06-22T10:58:01;1.80;;;1.70;;
12848;SDS011;6493;50.928;7.172;2023-06-22T11:03:08;1.60;;;1.50;;
12848;SDS011;6493;50.928;7.172;2023-06-22T11:08:16;2.83;;;1.90;;
12848;SDS011;6493;50.928;7.172;2023-06-22T11:13:19;1.63;;;1.53;;
12848;SDS011;6493;50.928;7.172;2023-06-22T11:18:23;2.13;;;1.87;;
12848;SDS011;6493;50.928;7.172;2023-06-22T11:23:28;1.70;;;1.60;;
12848;SDS011;6493;50.928;7.172;2023-06-22T11:28:32;1.63;;;1.53;;
12848;SDS011;6493;50.928;7.172;2023-06-22T11:33:35;3.10;;;1.67;;
12848;SDS011;6493;50.928;7.172;2023-06-22T11:38:40;2.37;;;2.17;;
12848;SDS011;6493;50.928;7.172;2023-06-22T11:43:44;1.97;;;1.87;;
12848;SDS011;6493;50.928;7.172;2023-06-22T11:48:48;2.77;;;2.57;;
12848;SDS011;6493;50.928;7.172;2023-06-22T11:53:53;2.27;;;2.10;;
12848;SDS011;6493;50.928;7.172;2023-06-22T11:58:56;2.53;;;2.33;;
12848;SDS011;6493;50.928;7.172;2023-06-22T12:04:00;2.70;;;2.50;;
12848;SDS011;6493;50.928;7.172;2023-06-22T12:09:09;2.50;;;2.30;;
12848;SDS011;6493;50.928;7.172;2023-06-22T12:14:12;2.80;;;2.60;;
12848;SDS011;6493;50.928;7.172;2023-06-22T12:19:16;2.73;;;2.53;;
12848;SDS011;6493;50.928;7.172;2023-06-22T12:24:21;2.67;;;2.47;;
12848;SDS011;6493;50.928;7.172;2023-06-22T12:29:25;2.50;;;2.30;;
12848;SDS011;6493;50.928;7.172;2023-06-22T12:34:28;2.60;;;2.40;;
12848;SDS011;6493;50.928;7.172;2023-06-22T12:39:33;3.03;;;2.83;;
12848;SDS011;6493;50.928;7.172;2023-06-22T12:44:37;2.23;;;2.13;;
12848;SDS011;6493;50.928;7.172;2023-06-22T12:49:41;2.80;;;2.60;;
12848;SDS011;6493;50.928;7.172;2023-06-22T12:54:46;2.73;;;2.53;;
12848;SDS011;6493;50.928;7.172;2023-06-22T12:59:56;3.40;;;3.20;;
12848;SDS011;6493;50.928;7.172;2023-06-22T13:05:02;2.70;;;2.50;;
12848;SDS011;6493;50.928;7.172;2023-06-22T13:10:08;3.70;;;3.40;;
12848;SDS011;6493;50.928;7.172;2023-06-22T13:15:12;2.63;;;2.43;;
12848;SDS011;6493;50.928;7.172;2023-06-22T13:20:16;3.47;;;3.27;;
12848;SDS011;6493;50.928;7.172;2023-06-22T13:25:21;2.70;;;2.50;;
12848;SDS011;6493;50.928;7.172;2023-06-22T13:30:28;2.50;;;2.30;;
12848;SDS011;6493;50.928;7.172;2023-06-22T13:35:33;2.87;;;2.67;;
12848;SDS011;6493;50.928;7.172;2023-06-22T13:40:38;2.90;;;2.70;;
12848;SDS011;6493;50.928;7.172;2023-06-22T13:45:42;3.00;;;2.80;;
12848;SDS011;6493;50.928;7.172;2023-06-22T13:50:46;2.97;;;2.77;;
12848;SDS011;6493;50.928;7.172;2023-06-22T13:55:51;3.03;;;2.73;;
12848;SDS011;6493;50.928;7.172;2023-06-22T14:00:54;2.27;;;2.17;;
12848;SDS011;6493;50.928;7.172;2023-06-22T14:05:58;2.20;;;2.00;;
12848;SDS011;6493;50.928;7.172;2023-06-22T14:11:03;2.33;;;2.13;;
12848;SDS011;6493;50.928;7.172;2023-06-22T14:16:06;3.07;;;2.87;;
12848;SDS011;6493;50.928;7.172;2023-06-22T14:21:10;2.70;;;2.50;;
12848;SDS011;6493;50.928;7.172;2023-06-22T14:26:15;3.00;;;2.80;;
12848;SDS011;6493;50.928;7.172;2023-06-22T14:31:20;2.60;;;2.40;;
12848;SDS011;6493;50.928;7.172;2023-06-22T14:36:23;2.50;;;2.30;;
12848;SDS011;6493;50.928;7.172;2023-06-22T14:41:28;2.73;;;2.07;;
12848;SDS011;6493;50.928;7.172;2023-06-22T14:46:32;2.60;;;2.40;;
12848;SDS011;6493;50.928;7.172;2023-06-22T14:51:36;2.77;;;2.57;;
12848;SDS011;6493;50.928;7.172;2023-06-22T14:56:41;2.27;;;2.13;;
12848;SDS011;6493;50.928;7.172;2023-06-22T15:01:45;2.87;;;2.30;;
12848;SDS011;6493;50.928;7.172;2023-06-22T15:06:49;2.33;;;1.80;;
12848;SDS011;6493;50.928;7.172;2023-06-22T15:11:54;1.70;;;1.60;;
12848;SDS011;6493;50.928;7.172;2023-06-22T15:16:59;1.97;;;1.80;;
12848;SDS011;6493;50.928;7.172;2023-06-22T15:22:03;2.80;;;1.90;;
12848;SDS011;6493;50.928;7.172;2023-06-22T15:27:09;4.47;;;2.70;;
12848;SDS011;6493;50.928;7.172;2023-06-22T15:32:12;2.97;;;2.77;;
12848;SDS011;6493;50.928;7.172;2023-06-22T15:37:16;4.60;;;4.20;;
12848;SDS011;6493;50.928;7.172;2023-06-22T15:42:21;3.80;;;3.50;;
12848;SDS011;6493;50.928;7.172;2023-06-22T15:47:25;4.10;;;3.80;;
12848;SDS011;6493;50.928;7.172;2023-06-22T15:52:28;3.87;;;3.57;;
12848;SDS011;6493;50.928;7.172;2023-06-22T15:57:33;3.43;;;3.10;;
12848;SDS011;6493;50.928;7.172;2023-06-22T16:02:37;2.80;;;2.60;;
12848;SDS011;6493;50.928;7.172;2023-06-22T16:07:41;2.90;;;2.70;;
12848;SDS011;6493;50.928;7.172;2023-06-22T16:12:46;2.87;;;2.67;;
12848;SDS011;6493;50.928;7.172;2023-06-22T16:17:54;2.73;;;2.53;;
12848;SDS011;6493;50.928;7.172;2023-06-22T16:22:57;2.33;;;2.13;;
12848;SDS011;6493;50.928;7.172;2023-06-22T16:28:02;2.00;;;1.90;;
12848;SDS011;6493;50.928;7.172;2023-06-22T16:33:06;2.00;;;1.90;;
12848;SDS011;6493;50.928;7.172;2023-06-22T16:38:10;2.60;;;2.40;;
12848;SDS011;6493;50.928;7.172;2023-06-22T16:43:15;3.10;;;2.90;;
12848;SDS011;6493;50.928;7.172;2023-06-22T16:48:18;2.07;;;1.87;;
12848;SDS011;6493;50.928;7.172;2023-06-22T16:53:22;3.33;;;2.00;;
12848;SDS011;6493;50.928;7.172;2023-06-22T16:58:28;2.30;;;1.97;;
12848;SDS011;6493;50.928;7.172;2023-06-22T17:03:33;1.90;;;1.70;;
12848;SDS011;6493;50.928;7.172;2023-06-22T17:08:38;2.00;;;1.80;;
12848;SDS011;6493;50.928;7.172;2023-06-22T17:13:45;2.77;;;2.07;;
12848;SDS011;6493;50.928;7.172;2023-06-22T17:18:52;1.70;;;1.60;;
12848;SDS011;6493;50.928;7.172;2023-06-22T17:24:01;2.07;;;1.40;;
12848;SDS011;6493;50.928;7.172;2023-06-22T17:29:08;1.50;;;1.40;;
12848;SDS011;6493;50.928;7.172;2023-06-22T17:34:13;1.83;;;1.50;;
12848;SDS011;6493;50.928;7.172;2023-06-22T17:39:19;1.70;;;1.60;;
12848;SDS011;6493;50.928;7.172;2023-06-22T17:44:25;2.63;;;2.07;;
12848;SDS011;6493;50.928;7.172;2023-06-22T17:49:30;2.43;;;1.80;;
12848;SDS011;6493;50.928;7.172;2023-06-22T17:54:34;1.80;;;1.70;;
12848;SDS011;6493;50.928;7.172;2023-06-22T17:59:49;2.00;;;1.80;;
12848;SDS011;6493;50.928;7.172;2023-06-22T18:04:56;1.67;;;1.57;;
12848;SDS011;6493;50.928;7.172;2023-06-22T18:10:00;2.20;;;2.00;;
12848;SDS011;6493;50.928;7.172;2023-06-22T18:15:07;2.23;;;2.13;;
12848;SDS011;6493;50.928;7.172;2023-06-22T18:20:11;2.40;;;2.20;;
12848;SDS011;6493;50.928;7.172;2023-06-22T18:25:15;1.73;;;1.60;;
12848;SDS011;6493;50.928;7.172;2023-06-22T18:30:20;1.57;;;1.47;;
12848;SDS011;6493;50.928;7.172;2023-06-22T18:35:25;1.60;;;1.50;;
12848;SDS011;6493;50.928;7.172;2023-06-22T18:40:29;1.70;;;1.60;;
12848;SDS011;6493;50.928;7.172;2023-06-22T18:45:34;2.03;;;1.83;;
12848;SDS011;6493;50.928;7.172;2023-06-22T18:50:40;1.73;;;1.60;;
12848;SDS011;6493;50.928;7.172;2023-06-22T18:55:44;1.40;;;1.30;;
12848;SDS011;6493;50.928;7.172;2023-06-22T19:00:54;2.23;;;2.00;;
12848;SDS011;6493;50.928;7.172;2023-06-22T19:17:26;3.17;;;2.80;;
12848;SDS011;6493;50.928;7.172;2023-06-22T19:27:59;3.00;;;2.80;;
12848;SDS011;6493;50.928;7.172;2023-06-22T19:33:04;2.60;;;2.50;;
12848;SDS011;6493;50.928;7.172;2023-06-22T19:38:11;3.23;;;2.73;;
12848;SDS011;6493;50.928;7.172;2023-06-22T19:43:18;2.73;;;2.53;;
12848;SDS011;6493;50.928;7.172;2023-06-22T19:48:25;3.00;;;2.80;;
12848;SDS011;6493;50.928;7.172;2023-06-22T19:53:30;2.27;;;2.07;;
12848;SDS011;6493;50.928;7.172;2023-06-22T19:58:33;1.33;;;1.23;;
12848;SDS011;6493;50.928;7.172;2023-06-22T20:03:39;1.10;;;1.00;;
12848;SDS011;6493;50.928;7.172;2023-06-22T20:08:43;0.70;;;0.70;;
12848;SDS011;6493;50.928;7.172;2023-06-22T20:13:48;2.37;;;0.70;;
12848;SDS011;6493;50.928;7.172;2023-06-22T20:19:07;1.03;;;0.70;;
12848;SDS011;6493;50.928;7.172;2023-06-22T20:24:13;1.80;;;0.87;;
12848;SDS011;6493;50.928;7.172;2023-06-22T20:29:23;0.70;;;0.70;;
12848;SDS011;6493;50.928;7.172;2023-06-22T20:34:33;1.10;;;1.00;;
12848;SDS011;6493;50.928;7.172;2023-06-22T20:39:37;2.27;;;1.20;;
12848;SDS011;6493;50.928;7.172;2023-06-22T20:44:41;1.50;;;1.40;;
12848;SDS011;6493;50.928;7.172;2023-06-22T20:49:53;1.50;;;1.40;;
12848;SDS011;6493;50.928;7.172;2023-06-22T20:55:01;1.67;;;1.57;;
12848;SDS011;6493;50.928;7.172;2023-06-22T21:00:05;2.10;;;1.90;;
12848;SDS011;6493;50.928;7.172;2023-06-22T21:05:11;2.70;;;2.50;;
12848;SDS011;6493;50.928;7.172;2023-06-22T21:10:15;2.07;;;1.97;;
12848;SDS011;6493;50.928;7.172;2023-06-22T21:15:18;2.47;;;2.27;;
12848;SDS011;6493;50.928;7.172;2023-06-22T21:20:23;2.27;;;2.07;;
12848;SDS011;6493;50.928;7.172;2023-06-22T21:25:27;2.40;;;2.20;;
12848;SDS011;6493;50.928;7.172;2023-06-22T21:30:31;2.23;;;2.03;;
12848;SDS011;6493;50.928;7.172;2023-06-22T21:35:36;2.47;;;2.27;;
12848;SDS011;6493;50.928;7.172;2023-06-22T21:40:40;2.83;;;2.63;;
12848;SDS011;6493;50.928;7.172;2023-06-22T21:45:44;2.77;;;2.57;;
12848;SDS011;6493;50.928;7.172;2023-06-22T21:50:49;2.13;;;2.03;;
12848;SDS011;6493;50.928;7.172;2023-06-22T21:55:52;2.73;;;2.53;;
12848;SDS011;6493;50.928;7.172;2023-06-22T22:01:04;2.40;;;2.20;;
12848;SDS011;6493;50.928;7.172;2023-06-22T22:06:08;2.27;;;2.07;;
12848;SDS011;6493;50.928;7.172;2023-06-22T22:11:11;2.80;;;2.60;;
12848;SDS011;6493;50.928;7.172;2023-06-22T22:16:16;2.50;;;2.30;;
12848;SDS011;6493;50.928;7.172;2023-06-22T22:21:20;2.93;;;2.73;;
12848;SDS011;6493;50.928;7.172;2023-06-22T22:26:23;3.83;;;2.70;;
12848;SDS011;6493;50.928;7.172;2023-06-22T22:31:29;3.30;;;3.03;;
12848;SDS011;6493;50.928;7.172;2023-06-22T22:36:33;2.67;;;2.47;;
12848;SDS011;6493;50.928;7.172;2023-06-22T22:41:36;2.90;;;2.70;;
12848;SDS011;6493;50.928;7.172;2023-06-22T22:46:41;2.70;;;2.50;;
12848;SDS011;6493;50.928;7.172;2023-06-22T22:51:45;2.47;;;2.13;;
12848;SDS011;6493;50.928;7.172;2023-06-22T22:56:48;1.70;;;1.60;;
12848;SDS011;6493;50.928;7.172;2023-06-22T23:01:53;2.73;;;2.53;;
12848;SDS011;6493;50.928;7.172;2023-06-22T23:06:57;2.27;;;2.07;;
12848;SDS011;6493;50.928;7.172;2023-06-22T23:12:01;1.93;;;1.83;;
12848;SDS011;6493;50.928;7.172;2023-06-22T23:17:06;2.37;;;2.03;;
12848;SDS011;6493;50.928;7.172;2023-06-22T23:22:10;1.93;;;1.83;;
12848;SDS011;6493;50.928;7.172;2023-06-22T23:27:14;2.47;;;2.27;;
12848;SDS011;6493;50.928;7.172;2023-06-22T23:32:19;1.83;;;1.73;;
12848;SDS011;6493;50.928;7.172;2023-06-22T23:37:23;2.40;;;2.20;;
12848;SDS011;6493;50.928;7.172;2023-06-22T23:42:27;3.77;;;2.77;;
12848;SDS011;6493;50.928;7.172;2023-06-22T23:47:32;2.63;;;2.43;;
12848;SDS011;6493;50.928;7.172;2023-06-22T23:52:37;2.10;;;1.90;;
12848;SDS011;6493;50.928;7.172;2023-06-22T23:57:41;2.50;;;2.30;;
